DW3253 Tampa FL US current weather conditions

sailwx.info

Wind from 034 at 11 knots gusting 18

Air temperature 5.0° C
Dewpoint 1.7° C

Last reported at 2020-Feb-22 09:56 UTC.
Time now 2020-Feb-22 10:22 UTC

Location: N 27°57' W 082°28'.
View on Google Maps.

See reports from other nearby stations

  
Tides and Currents Weather Stations Pressure Air Temp Water Temp Dewpoint Dewpoint Depression Visibility Wind Speed Wind Dir Waves Ship Positions
date/time (UTC)wind fromknots sea level pressurealtimeterstation pressurevisibilityair tempwater tempwave heightnotes
2020-Feb-22 09:56 034 11 gusting 18 5.0
2020-Feb-22 09:46 054 11 gusting 18 5.6
2020-Feb-22 09:36 018 13 gusting 20 5.6
2020-Feb-22 09:26 005 11 gusting 19 5.6
2020-Feb-22 09:16 028 12 gusting 18 5.6
2020-Feb-22 09:06 036 13 gusting 19 5.6
2020-Feb-22 08:56 018 12 gusting 18 5.6
2020-Feb-22 08:46 035 11 gusting 18 5.6
2020-Feb-22 08:36 015 11 gusting 17 5.6
2020-Feb-22 08:26 5.6
2020-Feb-22 08:16 043 10 gusting 19 5.6
2020-Feb-22 08:06 059 11 gusting 19 6.1
2020-Feb-22 07:56 034 11 gusting 21 6.1
2020-Feb-22 07:46 033 11 gusting 17 6.1
2020-Feb-22 07:36 005 13 gusting 22 6.1
2020-Feb-22 07:26 013 11 gusting 19 6.1
2020-Feb-22 07:16 059 12 gusting 21 6.1
2020-Feb-22 07:06 044 12 gusting 19 6.1
2020-Feb-22 06:56 6.1
2020-Feb-22 06:46 022 13 gusting 19 6.1
2020-Feb-22 06:36 038 13 gusting 19 6.1
2020-Feb-22 06:26 343 13 gusting 19 6.7
2020-Feb-22 06:16 005 11 gusting 16 6.7
2020-Feb-22 06:06 355 11 gusting 18 6.7
2020-Feb-22 05:56 042 10 gusting 16 6.7
2020-Feb-22 05:46 005 9 gusting 16 6.7
2020-Feb-22 05:36 034 10 gusting 20 7.2
2020-Feb-22 05:26 059 10 gusting 19 7.2
2020-Feb-22 05:16 039 12 gusting 22 7.2
2020-Feb-22 05:06 067 13 gusting 22 7.2
2020-Feb-22 04:56 021 11 gusting 19 7.2
2020-Feb-22 04:46 067 13 gusting 20 7.2
2020-Feb-22 04:36 046 12 gusting 20 7.2
2020-Feb-22 04:26 054 12 gusting 19 7.2
2020-Feb-22 04:16 061 12 gusting 19 7.8
2020-Feb-22 04:06 040 13 gusting 23 7.8
2020-Feb-22 03:56 005 13 gusting 23 7.8
2020-Feb-22 03:46 071 13 gusting 25 7.8
2020-Feb-22 03:36 346 15 gusting 25 7.8
2020-Feb-22 03:26 040 14 gusting 24 7.8
2020-Feb-22 03:16 047 15 gusting 25 7.8
2020-Feb-22 03:06 103 15 gusting 26 7.8
2020-Feb-22 02:56 041 14 gusting 24 8.3
2020-Feb-22 02:46 049 18 gusting 28 8.3
2020-Feb-22 02:36 061 13 gusting 26 8.3
2020-Feb-22 02:26 068 14 gusting 26 8.3
2020-Feb-22 02:16 065 16 gusting 30 8.3
2020-Feb-22 02:06 063 19 gusting 30 8.3
2020-Feb-22 01:56 038 15 gusting 25 8.3
2020-Feb-22 01:46 060 16 gusting 26 8.3
2020-Feb-22 01:36 005 14 gusting 23 8.3
2020-Feb-22 01:26 042 15 gusting 26 8.3
2020-Feb-22 01:16 102 15 gusting 26 8.9
2020-Feb-22 01:06 013 14 gusting 24 8.9
2020-Feb-22 00:56 044 15 gusting 23 8.9
2020-Feb-22 00:46 035 15 gusting 26 8.9
2020-Feb-22 00:36 151 16 gusting 27 8.9
2020-Feb-22 00:26 015 17 gusting 27 8.9
2020-Feb-22 00:16 028 16 gusting 26 8.9
2020-Feb-22 00:06 092 18 gusting 28 8.9
2020-Feb-21 23:56 062 15 gusting 28 8.9
2020-Feb-21 23:46 077 17 gusting 28 8.9
2020-Feb-21 23:36 015 18 gusting 25 8.9
2020-Feb-21 23:26 069 17 gusting 30 8.9
2020-Feb-21 23:16 041 17 gusting 25 9.4
2020-Feb-21 23:06 074 19 gusting 33 9.4
2020-Feb-21 22:56 079 16 gusting 27 9.4
2020-Feb-21 22:46 036 17 gusting 25 9.4
2020-Feb-21 22:36 040 15 gusting 27 9.4
2020-Feb-21 22:26 053 18 gusting 28 9.4
2020-Feb-21 22:16 059 17 gusting 28 9.4
2020-Feb-21 22:06 034 15 gusting 27 10.0
2020-Feb-21 21:56 070 15 gusting 23 10.0
2020-Feb-21 21:46 055 14 gusting 26 10.0
2020-Feb-21 21:36 085 16 gusting 23 10.0
2020-Feb-21 21:26 046 19 gusting 28 10.0
2020-Feb-21 21:16 025 19 gusting 31 10.0
2020-Feb-21 21:06 099 17 gusting 30 10.6
2020-Feb-21 20:56 063 19 gusting 29 10.0
2020-Feb-21 20:46 060 18 gusting 26 10.6
2020-Feb-21 20:36 037 19 gusting 27 11.1
2020-Feb-21 20:26 134 19 gusting 31 11.1
2020-Feb-21 20:16 064 19 gusting 31 11.1
2020-Feb-21 20:06 047 18 gusting 26 11.1
2020-Feb-21 19:56 040 17 gusting 28 11.7
2020-Feb-21 19:46 060 14 gusting 25 11.7
2020-Feb-21 19:36 038 19 gusting 28 11.7
2020-Feb-21 19:26 104 16 gusting 26 12.2
2020-Feb-21 19:16 079 16 gusting 29 11.7
2020-Feb-21 19:06 025 18 gusting 28 11.7
2020-Feb-21 18:56 092 17 gusting 28 11.7
2020-Feb-21 18:46 055 17 gusting 26 11.7
2020-Feb-21 18:36 035 19 gusting 26 11.7
2020-Feb-21 18:26 080 17 gusting 26 11.7
2020-Feb-21 18:16 071 17 gusting 25 12.2
2020-Feb-21 18:06 058 17 gusting 30 11.7
2020-Feb-21 17:56 036 20 gusting 30 11.7
2020-Feb-21 17:46 076 17 gusting 28 11.7
2020-Feb-21 17:36 084 17 gusting 26 11.7
2020-Feb-21 17:26 077 18 gusting 26 11.1
2020-Feb-21 17:16 11.7
2020-Feb-21 17:06 104 16 gusting 28 11.7
2020-Feb-21 16:56 049 16 gusting 28 11.1
2020-Feb-21 16:46 082 18 gusting 28 11.1
2020-Feb-21 16:36 070 16 gusting 23 11.1
2020-Feb-21 16:25 066 17 gusting 25 10.6
2020-Feb-21 16:15 005 15 gusting 25 10.6
2020-Feb-21 16:06 066 13 gusting 21 10.0
2020-Feb-21 15:55 041 13 gusting 24 10.6
2020-Feb-21 15:45 048 16 gusting 24 10.6
2020-Feb-21 15:36 076 13 gusting 22 10.0
2020-Feb-21 15:26 019 14 gusting 26 9.4
2020-Feb-21 15:15 067 14 gusting 23 9.4
2020-Feb-21 15:05 10.0
2020-Feb-21 14:55 027 15 gusting 25 10.0
2020-Feb-21 14:45 031 17 gusting 26 10.0
2020-Feb-21 14:36 071 13 gusting 26 10.0
2020-Feb-21 14:25 009 15 gusting 24 10.0
2020-Feb-21 14:15 024 14 gusting 23 9.4
2020-Feb-21 14:05 350 18 gusting 26 10.0
2020-Feb-21 13:55 038 15 gusting 26 10.0
2020-Feb-21 13:46 070 13 gusting 26 10.6
2020-Feb-21 13:35 034 16 gusting 31 10.6
2020-Feb-21 13:25 077 17 gusting 31 10.6
2020-Feb-21 13:15 036 14 gusting 24 10.6
2020-Feb-21 13:05 077 13 gusting 24 10.6
2020-Feb-21 12:55 019 13 gusting 24 10.6
2020-Feb-21 12:45 040 17 gusting 26 11.1
2020-Feb-21 12:35 030 14 gusting 26 11.7
2020-Feb-21 12:25 069 16 gusting 24 11.1
2020-Feb-21 12:15 027 13 gusting 22 11.7
2020-Feb-21 12:05 075 13 gusting 22 11.7
2020-Feb-21 11:55 057 17 gusting 26 11.7
2020-Feb-21 11:45 048 16 gusting 28 11.7
2020-Feb-21 11:35 078 14 gusting 28 11.7
2020-Feb-21 11:25 052 16 gusting 24 11.7
2020-Feb-21 11:15 071 15 gusting 26 11.7
2020-Feb-21 11:05 068 17 gusting 26 11.7
2020-Feb-21 10:55 049 17 gusting 31 12.2
2020-Feb-21 10:45 028 19 gusting 29 12.2
2020-Feb-21 10:35 055 16 gusting 26 12.2
2020-Feb-21 10:25 037 13 gusting 21 12.8
2020-Feb-21 10:15 023 17 gusting 25 12.8
2020-Feb-21 10:05 081 17 gusting 25 12.8
2020-Feb-21 09:55 025 16 gusting 28 13.3
2020-Feb-21 09:45 076 18 gusting 29 13.3
2020-Feb-21 09:35 067 16 gusting 26 13.9
2020-Feb-21 09:25 054 13 gusting 25 14.4
2020-Feb-21 09:15 051 14 gusting 23 15.6
2020-Feb-21 09:05 029 11 gusting 26 17.8
2020-Feb-21 08:55 047 6 gusting 12 20.6
2020-Feb-21 08:45 322 6 gusting 10 20.6
2020-Feb-21 08:35 251 5 gusting 16 21.1
2020-Feb-21 08:25 312 7 gusting 17 21.1
2020-Feb-21 08:15 337 10 gusting 17 21.7
2020-Feb-21 08:05 297 7 gusting 17 22.2
2020-Feb-21 07:55 262 8 gusting 13 22.2
2020-Feb-21 07:45 254 5 gusting 10 22.2
2020-Feb-21 07:35 264 6 gusting 13 22.2
2020-Feb-21 07:25 224 6 gusting 13 22.2
2020-Feb-21 07:15 275 6 gusting 11 22.2
2020-Feb-21 07:05 205 6 gusting 12 22.2
2020-Feb-21 06:55 246 6 gusting 12 22.2
2020-Feb-21 06:45 288 6 gusting 11 22.2
2020-Feb-21 06:35 246 4 gusting 9 22.2
2020-Feb-21 06:25 247 5 gusting 11 22.2
2020-Feb-21 06:15 301 4 gusting 9 22.2
2020-Feb-21 06:05 271 4 gusting 8 22.2
2020-Feb-21 05:55 257 4 gusting 10 22.2
2020-Feb-21 05:45 300 4 gusting 8 22.2
2020-Feb-21 05:35 234 3 gusting 9 22.2
2020-Feb-21 05:25 191 3 gusting 9 22.2
2020-Feb-21 05:15 252 4 gusting 9 22.2
2020-Feb-21 05:05 239 4 gusting 11 22.2
2020-Feb-21 04:55 231 4 gusting 8 22.2
2020-Feb-21 04:45 257 3 gusting 7 22.2
2020-Feb-21 04:35 259 5 gusting 10 22.2
2020-Feb-21 04:25 263 2 gusting 6 22.2
2020-Feb-21 04:15 309 2 gusting 6 22.2
2020-Feb-21 04:05 259 2 gusting 6 22.2
2020-Feb-21 03:55 219 3 gusting 6 22.2
2020-Feb-21 03:45 250 2 gusting 6 22.2
2020-Feb-21 03:35 031 1 gusting 6 22.2
2020-Feb-21 03:25 234 4 gusting 7 22.2
2020-Feb-21 03:15 282 4 gusting 8 22.2
2020-Feb-21 03:05 309 3 gusting 8 22.2
2020-Feb-21 02:55 278 2 gusting 6 22.2
2020-Feb-21 02:45 256 2 gusting 6 22.2
2020-Feb-21 02:35 256 2 gusting 6 22.2
2020-Feb-21 02:25 285 4 gusting 8 22.2
2020-Feb-21 02:15 298 4 gusting 8 22.2
2020-Feb-21 02:05 305 2 gusting 6 22.2
2020-Feb-21 01:55 290 2 gusting 6 22.2
2020-Feb-21 01:45 293 3 gusting 8 22.2
2020-Feb-21 01:35 078 5 gusting 9 22.2
2020-Feb-21 01:25 290 6 gusting 12 22.2
2020-Feb-21 01:15 321 8 gusting 13 22.2
2020-Feb-21 01:05 300 8 gusting 15 22.8
2020-Feb-21 00:55 289 7 gusting 14 22.8
2020-Feb-21 00:45 296 5 gusting 11 23.3
2020-Feb-21 00:35 306 5 gusting 10 23.3
2020-Feb-21 00:25 309 6 gusting 11 23.3
2020-Feb-21 00:15 301 7 gusting 13 23.3
2020-Feb-21 00:05 333 6 gusting 11 23.9
2020-Feb-20 23:55 288 5 gusting 10 23.9
2020-Feb-20 23:45 205 6 gusting 12 24.4
2020-Feb-20 23:35 264 6 gusting 13 24.4
2020-Feb-20 23:25 255 6 gusting 10 24.4
2020-Feb-20 23:15 223 5 gusting 12 25.0
2020-Feb-20 23:05 273 6 gusting 13 25.0
2020-Feb-20 22:55 249 6 gusting 11 25.0
2020-Feb-20 22:45 264 6 gusting 13 25.6
2020-Feb-20 22:35 294 6 gusting 13 25.6
2020-Feb-20 22:25 206 7 gusting 15 25.6
2020-Feb-20 22:15 259 8 gusting 14 26.1
2020-Feb-20 22:05 239 6 gusting 13 26.7
2020-Feb-20 21:55 213 6 gusting 15 26.7
2020-Feb-20 21:45 243 6 gusting 15 26.7
2020-Feb-20 21:35 272 6 gusting 13 26.7
2020-Feb-20 21:25 235 6 gusting 13 26.7
2020-Feb-20 21:15 244 6 gusting 13 27.2
2020-Feb-20 21:05 182 7 gusting 14 27.2
2020-Feb-20 20:55 285 6 gusting 13 27.2
2020-Feb-20 20:45 198 7 gusting 18 27.2
2020-Feb-20 20:35 230 7 gusting 17 27.2
2020-Feb-20 20:25 184 7 gusting 16 27.2
2020-Feb-20 20:15 196 6 gusting 16 27.2
2020-Feb-20 20:05 193 6 gusting 15 27.2
2020-Feb-20 19:55 032 6 gusting 15 27.2
2020-Feb-20 19:45 248 7 gusting 19 27.2
2020-Feb-20 19:35 216 8 gusting 17 27.2
2020-Feb-20 19:25 202 8 gusting 17 27.2
2020-Feb-20 19:15 178 7 gusting 17 27.2
2020-Feb-20 19:05 215 6 gusting 17 27.2
2020-Feb-20 18:55 198 9 gusting 19 27.2
2020-Feb-20 18:45 232 7 gusting 19 27.2
2020-Feb-20 18:35 173 7 gusting 19 27.2
2020-Feb-20 18:25 277 8 gusting 17 27.2
2020-Feb-20 18:15 307 7 gusting 14 27.2
2020-Feb-20 18:05 201 7 gusting 17 26.7
2020-Feb-20 17:55 194 6 gusting 13 26.1
2020-Feb-20 17:45 217 6 gusting 11 26.1
2020-Feb-20 17:35 198 5 gusting 10 26.1
2020-Feb-20 17:25 180 4 gusting 9 26.1
2020-Feb-20 17:15 155 5 gusting 9 25.6
2020-Feb-20 17:05 188 4 gusting 9 25.6
2020-Feb-20 16:55 212 6 gusting 10 25.0
2020-Feb-20 16:45 200 5 gusting 9 24.4
2020-Feb-20 16:35 205 4 gusting 7 24.4
2020-Feb-20 16:25 167 5 gusting 9 23.9
2020-Feb-20 16:15 180 3 gusting 8 23.9
2020-Feb-20 16:05 132 5 gusting 9 23.3
2020-Feb-20 15:55 138 4 gusting 8 23.3
2020-Feb-20 15:45 132 3 gusting 6 23.3
2020-Feb-20 15:35 196 3 gusting 6 23.3
2020-Feb-20 15:25 109 5 gusting 8 22.8
2020-Feb-20 15:15 120 5 gusting 11 22.8
2020-Feb-20 15:05 094 7 gusting 12 22.8
2020-Feb-20 14:55 106 7 gusting 12 22.2
2020-Feb-20 14:45 123 7 gusting 12 22.2
2020-Feb-20 14:35 088 6 gusting 13 22.2
2020-Feb-20 14:25 087 6 gusting 9 22.2
2020-Feb-20 14:15 154 4 gusting 9 22.2
2020-Feb-20 14:05 119 4 gusting 6 21.7
2020-Feb-20 13:55 098 5 gusting 7 21.7
2020-Feb-20 13:45 138 4 gusting 8 21.7
2020-Feb-20 13:35 117 6 gusting 9 21.7
2020-Feb-20 13:25 101 4 gusting 9 21.7
2020-Feb-20 13:15 130 6 gusting 10 21.7
2020-Feb-20 13:05 104 6 gusting 10 21.7
2020-Feb-20 12:55 103 5 gusting 8 21.7
2020-Feb-20 12:45 133 6 gusting 11 21.7
2020-Feb-20 12:35 105 6 gusting 12 21.1
2020-Feb-20 12:25 092 4 gusting 7 21.1
2020-Feb-20 12:15 134 4 gusting 8 21.1
2020-Feb-20 12:05 115 5 gusting 10 21.1
2020-Feb-20 11:55 134 6 gusting 12 20.6
2020-Feb-20 11:45 084 6 gusting 11 20.6
2020-Feb-20 11:35 120 6 gusting 11 20.6
2020-Feb-20 11:25 117 6 gusting 12 20.6
2020-Feb-20 11:15 119 7 gusting 13 20.6
2020-Feb-20 11:05 094 8 gusting 12 20.6
2020-Feb-20 10:55 081 8 gusting 13 20.6
2020-Feb-20 10:45 091 8 gusting 11 20.6
2020-Feb-20 10:35 075 9 gusting 12 20.6
2020-Feb-20 10:25 080 9 gusting 13 20.6
2020-Feb-20 10:15 072 8 gusting 12 20.6
2020-Feb-20 10:05 096 8 gusting 11 20.6